Time;durP1;ratioP1;P1;durP2;ratioP2;P2;SDS_P1;SDS_P2;PMS_P1;PMS_P2;Temp;Humidity;BMP_temperature;BMP_pressure;BME280_temperature;BME280_humidity;BME280_pressure;Samples;Min_cycle;Max_cycle;Signal;HPM_P1;HPM_P2
2023/09/22 00:01:43;;;;;;;7.85;3.15;;;22.70;96.70;;;;;;5027735;28;20041;-81
2023/09/22 00:04:11;;;;;;;7.57;3.00;;;22.60;96.70;;;;;;5025065;28;20041;-82
2023/09/22 00:06:41;;;;;;;6.10;2.58;;;22.60;96.70;;;;;;5027067;28;20045;-82
2023/09/22 00:09:09;;;;;;;5.90;2.80;;;22.60;96.70;;;;;;5023846;28;20136;-82
2023/09/22 00:11:37;;;;;;;5.03;2.53;;;22.60;96.70;;;;;;5025750;28;20045;-81
2023/09/22 00:14:07;;;;;;;7.13;2.70;;;22.50;96.70;;;;;;5025906;28;20048;-81
2023/09/22 00:16:37;;;;;;;11.30;3.45;;;22.50;96.70;;;;;;5024376;28;20388;-81
2023/09/22 00:19:05;;;;;;;6.40;2.55;;;22.50;96.70;;;;;;5008160;28;20045;-81
2023/09/22 00:21:34;;;;;;;7.40;3.30;;;22.50;96.70;;;;;;5024840;28;20711;-82
2023/09/22 00:24:02;;;;;;;7.35;2.85;;;22.50;96.70;;;;;;5031288;28;20037;-81
2023/09/22 00:26:30;;;;;;;6.82;3.05;;;22.40;96.70;;;;;;5024169;28;20422;-81
2023/09/22 00:28:59;;;;;;;8.18;3.05;;;22.40;96.70;;;;;;5023329;28;20097;-81
2023/09/22 00:31:27;;;;;;;5.90;2.97;;;22.30;96.70;;;;;;5009379;28;20076;-81
2023/09/22 00:33:56;;;;;;;6.80;2.95;;;22.30;96.70;;;;;;5028128;28;20065;-82
2023/09/22 00:36:25;;;;;;;8.00;3.08;;;22.20;96.70;;;;;;5026617;28;20038;-82
2023/09/22 00:38:53;;;;;;;13.82;3.60;;;22.20;96.70;;;;;;5008289;28;20050;-82
2023/09/22 00:41:22;;;;;;;6.10;3.17;;;22.20;96.70;;;;;;5024072;28;20084;-81
2023/09/22 00:43:50;;;;;;;8.60;2.40;;;22.30;96.70;;;;;;5024102;28;20080;-82
2023/09/22 00:46:22;;;;;;;7.15;2.55;;;22.30;96.70;;;;;;5027379;28;20053;-82
2023/09/22 00:48:51;;;;;;;8.73;3.22;;;22.20;96.70;;;;;;5027364;28;20148;-81
2023/09/22 00:51:21;;;;;;;6.45;3.20;;;22.20;96.70;;;;;;5011686;28;20133;-82
2023/09/22 00:53:50;;;;;;;7.00;2.70;;;22.20;96.70;;;;;;5011272;28;20045;-81
2023/09/22 00:56:20;;;;;;;6.53;2.72;;;22.20;96.70;;;;;;5027881;28;20120;-83
2023/09/22 00:58:49;;;;;;;6.95;3.33;;;22.20;96.70;;;;;;5028991;28;20061;-81
2023/09/22 01:01:20;;;;;;;9.88;3.70;;;22.10;96.70;;;;;;5028284;28;20048;-82
2023/09/22 01:03:48;;;;;;;9.00;2.70;;;22.00;96.70;;;;;;5027909;28;20073;-82
2023/09/22 01:06:17;;;;;;;9.15;3.33;;;22.00;96.70;;;;;;5027800;28;20044;-82
2023/09/22 01:08:47;;;;;;;7.05;2.80;;;22.00;96.70;;;;;;5027885;28;20046;-82
2023/09/22 01:11:15;;;;;;;7.53;2.92;;;22.00;96.70;;;;;;5029124;28;20152;-82
2023/09/22 01:13:43;;;;;;;5.93;2.95;;;22.00;96.70;;;;;;5011339;28;20447;-82
2023/09/22 01:16:11;;;;;;;8.02;2.88;;;22.00;96.70;;;;;;5003704;28;20041;-82
2023/09/22 01:18:41;;;;;;;6.55;2.60;;;22.10;96.70;;;;;;5027214;28;20041;-82
2023/09/22 01:21:12;;;;;;;5.82;2.50;;;22.10;96.70;;;;;;5019000;28;20049;-81
2023/09/22 01:23:42;;;;;;;7.07;2.90;;;22.10;96.70;;;;;;5026770;28;20053;-81
2023/09/22 01:26:10;;;;;;;6.93;2.53;;;22.00;96.70;;;;;;5010905;28;20132;-82
2023/09/22 01:28:38;;;;;;;7.57;2.60;;;22.00;96.70;;;;;;5010708;28;20049;-83
2023/09/22 01:31:06;;;;;;;6.55;2.63;;;22.00;96.70;;;;;;5029162;28;20069;-81
2023/09/22 01:33:34;;;;;;;6.00;2.53;;;22.00;96.70;;;;;;5028587;28;20052;-82
2023/09/22 01:36:03;;;;;;;7.70;2.72;;;22.00;96.70;;;;;;5028245;28;20049;-81
2023/09/22 01:38:31;;;;;;;9.02;2.67;;;22.00;96.70;;;;;;5026568;28;20045;-81
2023/09/22 01:41:00;;;;;;;8.68;3.33;;;21.90;96.70;;;;;;5026251;28;20137;-81
2023/09/22 01:43:29;;;;;;;5.88;3.10;;;21.90;96.70;;;;;;5010238;28;20053;-82
2023/09/22 01:45:57;;;;;;;6.80;2.60;;;21.90;96.70;;;;;;5010594;28;20701;-81
2023/09/22 01:48:25;;;;;;;6.85;2.67;;;22.00;96.70;;;;;;5026949;28;20053;-81
2023/09/22 01:50:53;;;;;;;6.63;2.63;;;21.90;96.70;;;;;;5026688;28;20569;-82
2023/09/22 01:53:21;;;;;;;5.70;2.35;;;22.00;96.70;;;;;;5009795;28;20045;-81
2023/09/22 01:55:51;;;;;;;8.65;3.28;;;21.90;96.70;;;;;;5020715;28;20045;-81
2023/09/22 01:58:21;;;;;;;5.55;2.67;;;21.90;96.70;;;;;;5026537;28;20146;-81
2023/09/22 02:00:49;;;;;;;5.22;2.40;;;21.90;96.70;;;;;;5027091;28;20506;-82
2023/09/22 02:03:18;;;;;;;5.35;2.50;;;21.90;96.70;;;;;;5012524;28;20140;-81
2023/09/22 02:05:46;;;;;;;4.68;2.58;;;21.80;96.70;;;;;;5010601;28;20049;-81
2023/09/22 02:08:14;;;;;;;6.13;2.40;;;21.80;96.70;;;;;;5027475;28;20047;-82
2023/09/22 02:10:42;;;;;;;7.68;2.70;;;21.80;96.70;;;;;;5026946;28;20053;-81
2023/09/22 02:13:10;;;;;;;7.57;2.80;;;21.80;96.70;;;;;;5026219;28;20071;-81
2023/09/22 02:15:40;;;;;;;6.68;2.22;;;21.80;96.70;;;;;;5010569;28;20053;-81
2023/09/22 02:18:08;;;;;;;6.22;2.60;;;21.80;96.70;;;;;;5027208;28;20044;-81
2023/09/22 02:20:36;;;;;;;5.22;2.35;;;21.80;96.70;;;;;;5025456;28;20053;-81
2023/09/22 02:23:05;;;;;;;5.47;2.45;;;21.70;96.70;;;;;;5019640;28;20045;-81
2023/09/22 02:25:34;;;;;;;7.22;2.60;;;21.70;96.70;;;;;;5028013;28;20057;-81
2023/09/22 02:28:03;;;;;;;5.05;2.45;;;21.70;96.70;;;;;;5026293;28;20100;-81
2023/09/22 02:30:31;;;;;;;5.60;2.80;;;21.60;96.70;;;;;;5026044;28;20045;-81
2023/09/22 02:33:01;;;;;;;7.22;2.70;;;21.60;96.70;;;;;;5006777;28;20137;-81
2023/09/22 02:35:29;;;;;;;6.38;2.30;;;21.50;96.70;;;;;;5025945;28;20049;-82
2023/09/22 02:37:58;;;;;;;6.75;2.72;;;21.40;96.70;;;;;;5025418;28;20045;-82
2023/09/22 02:40:26;;;;;;;6.18;2.50;;;21.40;96.70;;;;;;5025380;28;20045;-82
2023/09/22 02:42:54;;;;;;;6.47;2.63;;;21.40;96.70;;;;;;5009476;28;20048;-81
2023/09/22 02:45:22;;;;;;;6.20;2.05;;;21.30;96.70;;;;;;5025873;28;20452;-82
2023/09/22 02:47:51;;;;;;;7.78;3.05;;;21.30;96.70;;;;;;5008927;28;20072;-81
2023/09/22 02:50:20;;;;;;;7.20;2.70;;;21.30;96.70;;;;;;5025197;28;20052;-82
2023/09/22 02:52:48;;;;;;;6.45;2.55;;;21.30;96.70;;;;;;5024842;28;20052;-81
2023/09/22 02:55:16;;;;;;;3.95;2.22;;;21.20;96.70;;;;;;5026675;28;20099;-82
2023/09/22 02:57:47;;;;;;;9.50;2.55;;;21.20;96.70;;;;;;5026040;28;20068;-82
2023/09/22 03:00:20;;;;;;;8.68;3.38;;;21.10;96.70;;;;;;5025173;28;20144;-81
2023/09/22 03:02:50;;;;;;;7.40;2.70;;;21.10;96.70;;;;;;5019219;28;20066;-82
2023/09/22 03:05:19;;;;;;;5.80;2.63;;;21.10;96.70;;;;;;5025854;28;20038;-81
2023/09/22 03:07:50;;;;;;;5.43;2.90;;;21.10;96.70;;;;;;5005825;28;20111;-81
2023/09/22 03:10:20;;;;;;;8.85;2.67;;;21.10;96.70;;;;;;5040563;28;20105;-81
2023/09/22 03:12:53;;;;;;;7.07;2.40;;;21.10;96.70;;;;;;5026046;28;20075;-81
2023/09/22 03:15:23;;;;;;;7.07;2.55;;;21.10;96.70;;;;;;5008781;28;20525;-81
2023/09/22 03:17:51;;;;;;;5.53;2.28;;;21.20;96.70;;;;;;5025412;28;20140;-82
2023/09/22 03:20:21;;;;;;;6.57;2.50;;;21.20;96.70;;;;;;5025239;28;20502;-81
2023/09/22 03:22:50;;;;;;;9.40;3.30;;;21.20;96.70;;;;;;5008515;28;21245;-81
2023/09/22 03:25:18;;;;;;;4.60;2.30;;;21.20;96.70;;;;;;5008333;28;20045;-81
2023/09/22 03:27:46;;;;;;;7.13;3.25;;;21.20;96.70;;;;;;5008416;28;20107;-81
2023/09/22 03:30:17;;;;;;;7.72;2.88;;;21.30;96.70;;;;;;5024475;28;20414;-82
2023/09/22 03:32:46;;;;;;;5.28;2.83;;;21.30;96.70;;;;;;5009148;28;20057;-82
2023/09/22 03:35:16;;;;;;;7.40;2.80;;;21.40;96.70;;;;;;5026852;28;20069;-82
2023/09/22 03:37:48;;;;;;;6.65;2.92;;;21.40;96.70;;;;;;5025129;28;20713;-82
2023/09/22 03:40:22;;;;;;;6.68;2.50;;;21.40;96.70;;;;;;5025421;28;20062;-82
2023/09/22 03:42:51;;;;;;;8.27;2.83;;;21.40;96.70;;;;;;5005166;28;20104;-81
2023/09/22 03:45:19;;;;;;;6.57;2.70;;;21.30;96.70;;;;;;5021868;28;20033;-81
2023/09/22 03:47:47;;;;;;;6.65;2.85;;;21.20;96.70;;;;;;5024224;28;20037;-81
2023/09/22 03:50:17;;;;;;;6.18;2.30;;;21.20;96.70;;;;;;5007216;28;20128;-81
2023/09/22 03:52:46;;;;;;;4.03;2.28;;;21.10;96.70;;;;;;5023377;28;20049;-80
2023/09/22 03:55:15;;;;;;;6.20;2.80;;;21.00;96.70;;;;;;5025143;28;20633;-81
2023/09/22 03:57:43;;;;;;;6.18;3.03;;;21.10;96.70;;;;;;5027173;28;20069;-81
2023/09/22 04:00:18;;;;;;;6.82;2.80;;;21.10;96.70;;;;;;5013612;28;20137;-79
2023/09/22 04:02:46;;;;;;;7.10;2.47;;;21.20;96.70;;;;;;5006783;28;20050;-79
2023/09/22 04:05:15;;;;;;;6.82;2.50;;;21.20;96.70;;;;;;5031490;28;20560;-80
2023/09/22 04:07:43;;;;;;;9.85;2.65;;;21.20;96.70;;;;;;5008190;28;20077;-79
2023/09/22 04:10:13;;;;;;;5.57;2.22;;;21.20;96.70;;;;;;5023562;28;20037;-81
2023/09/22 04:12:41;;;;;;;5.40;2.80;;;21.20;96.70;;;;;;5024866;28;20139;-79
2023/09/22 04:15:09;;;;;;;8.55;2.95;;;21.30;96.70;;;;;;5024087;28;20042;-82
2023/09/22 04:17:40;;;;;;;13.57;3.33;;;21.20;96.70;;;;;;5009704;28;20143;-80
2023/09/22 04:20:16;;;;;;;5.47;2.90;;;21.20;96.70;;;;;;5022952;28;20042;-80
2023/09/22 04:22:45;;;;;;;6.20;3.47;;;21.20;96.70;;;;;;5027180;28;20111;-79
2023/09/22 04:25:19;;;;;;;5.20;2.92;;;21.20;96.70;;;;;;5027451;28;20048;-79
2023/09/22 04:27:54;;;;;;;7.72;3.10;;;21.10;96.70;;;;;;5019870;28;20053;-80
2023/09/22 04:30:24;;;;;;;8.00;3.10;;;21.10;96.70;;;;;;5010950;28;20534;-79
2023/09/22 04:32:53;;;;;;;6.85;2.95;;;21.00;96.70;;;;;;5010996;28;20091;-79
2023/09/22 04:35:21;;;;;;;5.97;2.65;;;20.90;96.70;;;;;;5029363;28;20390;-79
2023/09/22 04:37:50;;;;;;;7.50;3.10;;;20.90;96.70;;;;;;5011440;28;20072;-80
2023/09/22 04:40:29;;;;;;;4.60;2.35;;;20.90;96.70;;;;;;5027435;28;20494;-79
2023/09/22 04:42:57;;;;;;;8.02;3.10;;;20.90;96.70;;;;;;5010915;28;20057;-80
2023/09/22 04:45:25;;;;;;;7.78;2.75;;;20.90;96.70;;;;;;5029544;28;20045;-79
2023/09/22 04:47:55;;;;;;;7.03;3.10;;;20.90;96.70;;;;;;5027177;28;20115;-79
2023/09/22 04:50:23;;;;;;;6.03;2.42;;;20.90;96.70;;;;;;5023238;28;20050;-79
2023/09/22 04:52:52;;;;;;;4.82;2.50;;;20.80;96.70;;;;;;5028578;28;20041;-79
2023/09/22 04:55:22;;;;;;;12.20;3.20;;;20.80;96.70;;;;;;5029104;28;20041;-79
2023/09/22 04:57:50;;;;;;;4.70;2.20;;;20.80;96.70;;;;;;5027450;28;20057;-79
2023/09/22 05:00:22;;;;;;;7.63;2.90;;;20.80;96.70;;;;;;5029049;28;20049;-79
2023/09/22 05:02:50;;;;;;;6.05;2.47;;;20.70;96.70;;;;;;5028899;28;20037;-80
2023/09/22 05:05:19;;;;;;;5.60;2.45;;;20.70;96.70;;;;;;5011052;28;20103;-80
2023/09/22 05:07:47;;;;;;;5.70;2.45;;;20.60;96.70;;;;;;5026760;28;20536;-80
2023/09/22 05:10:16;;;;;;;5.28;2.60;;;20.50;96.70;;;;;;5011008;28;20033;-80
2023/09/22 05:12:45;;;;;;;5.97;3.00;;;20.60;96.70;;;;;;5007605;28;20535;-79
2023/09/22 05:15:14;;;;;;;9.85;2.80;;;20.60;96.70;;;;;;5010258;28;20045;-81
2023/09/22 05:17:42;;;;;;;9.07;2.90;;;20.50;96.70;;;;;;5026823;28;20084;-79
2023/09/22 05:20:13;;;;;;;7.70;2.78;;;20.50;96.70;;;;;;5026689;28;20068;-79
2023/09/22 05:22:42;;;;;;;8.82;2.50;;;20.50;96.70;;;;;;5026473;28;20056;-80
2023/09/22 05:25:12;;;;;;;4.20;2.38;;;20.40;96.70;;;;;;5027100;28;20140;-80
2023/09/22 05:27:42;;;;;;;7.13;2.33;;;20.50;96.70;;;;;;5010047;28;20491;-80
2023/09/22 05:30:13;;;;;;;6.68;2.92;;;20.50;96.70;;;;;;5028270;28;20048;-79
2023/09/22 05:32:41;;;;;;;6.22;2.70;;;20.50;96.70;;;;;;5027805;28;20160;-79
2023/09/22 05:35:09;;;;;;;5.60;2.83;;;20.60;96.70;;;;;;5026781;28;20128;-79
2023/09/22 05:37:38;;;;;;;11.38;3.15;;;20.60;96.70;;;;;;5026376;28;20045;-80
2023/09/22 05:40:12;;;;;;;7.47;2.95;;;20.50;96.70;;;;;;5028001;28;20045;-80
2023/09/22 05:42:42;;;;;;;10.85;3.30;;;20.50;96.70;;;;;;5003011;28;20061;-79
2023/09/22 05:45:12;;;;;;;8.35;2.90;;;20.60;96.70;;;;;;5026403;28;20380;-79
2023/09/22 05:48:09;;;;;;;11.00;3.40;;;20.60;96.70;;;;;;5028159;28;20076;-80
2023/09/22 05:50:38;;;;;;;8.23;3.40;;;20.70;96.70;;;;;;4969399;28;20133;-79
2023/09/22 05:53:08;;;;;;;6.47;3.00;;;20.70;96.70;;;;;;4984835;28;20081;-79
2023/09/22 05:55:36;;;;;;;6.47;3.30;;;20.70;96.70;;;;;;4969471;28;20066;-78
2023/09/22 05:58:06;;;;;;;7.90;3.17;;;20.70;96.70;;;;;;4949815;28;20049;-80
2023/09/22 06:00:36;;;;;;;8.82;3.67;;;20.80;96.70;;;;;;4968080;28;20145;-80
2023/09/22 06:03:07;;;;;;;8.07;3.33;;;20.80;96.70;;;;;;4968663;28;20046;-81
2023/09/22 06:05:35;;;;;;;6.93;3.20;;;20.90;96.70;;;;;;4969637;28;20042;-79
2023/09/22 06:08:05;;;;;;;7.68;2.95;;;20.90;96.70;;;;;;4999609;28;20084;-80
2023/09/22 06:10:33;;;;;;;6.15;3.78;;;21.00;96.70;;;;;;4961278;28;20511;-80
2023/09/22 06:13:02;;;;;;;8.45;3.75;;;21.10;96.70;;;;;;5009927;28;20048;-80
2023/09/22 06:15:30;;;;;;;9.38;3.63;;;21.20;96.70;;;;;;5001179;28;20055;-81
2023/09/22 06:17:59;;;;;;;12.20;4.30;;;21.20;96.70;;;;;;4984875;28;20428;-80
2023/09/22 06:20:27;;;;;;;8.45;4.22;;;21.30;96.70;;;;;;4986853;28;20617;-79
2023/09/22 06:22:55;;;;;;;12.27;5.60;;;21.30;96.70;;;;;;4985601;28;20054;-80
2023/09/22 06:25:26;;;;;;;11.32;6.30;;;21.40;96.70;;;;;;4976700;28;20512;-80
2023/09/22 06:27:54;;;;;;;11.25;5.82;;;21.40;96.70;;;;;;5008960;28;20045;-80
2023/09/22 06:30:23;;;;;;;9.07;5.28;;;21.40;96.70;;;;;;5008969;28;20045;-80
2023/09/22 06:32:51;;;;;;;8.98;5.30;;;21.50;96.70;;;;;;5026326;28;20713;-79
2023/09/22 06:35:20;;;;;;;23.27;15.27;;;21.60;96.70;;;;;;5029390;28;20041;-79
2023/09/22 06:37:49;;;;;;;26.77;18.77;;;21.60;96.70;;;;;;5030366;28;20052;-79
2023/09/22 06:40:17;;;;;;;24.40;14.85;;;21.70;96.70;;;;;;5025565;28;20580;-79
2023/09/22 06:42:45;;;;;;;23.30;12.73;;;21.70;96.70;;;;;;5030671;28;20543;-80
2023/09/22 06:45:15;;;;;;;16.40;9.73;;;21.70;96.70;;;;;;5026284;28;20111;-80
2023/09/22 06:47:44;;;;;;;13.00;9.35;;;21.70;96.70;;;;;;5029818;28;20052;-78
2023/09/22 06:50:13;;;;;;;16.73;8.30;;;21.70;96.70;;;;;;5027684;28;20037;-79
2023/09/22 06:52:43;;;;;;;13.73;7.55;;;21.80;96.70;;;;;;5025061;28;20052;-80
2023/09/22 06:55:13;;;;;;;15.25;7.50;;;21.80;96.70;;;;;;5027044;28;20080;-80
2023/09/22 06:57:42;;;;;;;12.13;6.88;;;21.80;96.70;;;;;;5026000;28;20182;-81
2023/09/22 07:00:22;;;;;;;12.38;5.72;;;21.90;96.70;;;;;;5025939;28;20053;-81
2023/09/22 07:02:50;;;;;;;10.25;5.60;;;21.90;96.70;;;;;;5026123;28;20048;-79
2023/09/22 07:05:21;;;;;;;10.38;5.45;;;22.00;96.70;;;;;;5022440;28;20080;-81
2023/09/22 07:07:50;;;;;;;11.18;5.13;;;22.00;96.70;;;;;;5026846;28;20541;-81
2023/09/22 07:10:19;;;;;;;9.27;4.88;;;22.10;96.70;;;;;;5023720;28;20506;-83
2023/09/22 07:12:47;;;;;;;14.52;4.90;;;22.10;96.70;;;;;;5010596;28;20091;-82
2023/09/22 07:15:16;;;;;;;15.35;6.15;;;22.20;96.70;;;;;;5027144;28;20045;-82
2023/09/22 07:17:44;;;;;;;10.77;4.78;;;22.30;96.70;;;;;;5026983;28;20498;-81
2023/09/22 07:20:14;;;;;;;9.63;5.72;;;22.30;96.70;;;;;;5026623;28;20041;-81
2023/09/22 07:22:43;;;;;;;11.30;6.18;;;22.40;96.70;;;;;;5024873;28;20076;-82
2023/09/22 07:25:14;;;;;;;10.77;5.60;;;22.50;96.70;;;;;;5027646;28;20038;-83
2023/09/22 07:27:45;;;;;;;15.10;5.20;;;22.50;96.70;;;;;;5025771;28;20046;-81
2023/09/22 07:30:13;;;;;;;11.43;5.93;;;22.50;96.70;;;;;;5026590;28;20140;-82
2023/09/22 07:32:42;;;;;;;10.30;5.40;;;22.50;96.70;;;;;;5026575;28;20588;-81
2023/09/22 07:35:10;;;;;;;14.50;6.85;;;22.50;96.70;;;;;;5024527;28;20111;-80
2023/09/22 07:37:39;;;;;;;12.88;6.45;;;22.50;96.70;;;;;;5025649;28;20076;-80
2023/09/22 07:40:09;;;;;;;15.82;6.85;;;22.60;96.70;;;;;;5004178;28;20041;-81
2023/09/22 07:42:41;;;;;;;14.63;6.90;;;22.60;96.70;;;;;;5041153;28;20064;-80
2023/09/22 07:45:11;;;;;;;11.07;6.50;;;22.70;96.70;;;;;;5028162;28;20053;-80
2023/09/22 07:47:39;;;;;;;12.88;6.28;;;22.70;96.70;;;;;;5024327;28;20051;-81
2023/09/22 07:50:08;;;;;;;13.73;6.80;;;22.80;96.70;;;;;;5026587;28;20091;-81
2023/09/22 07:52:36;;;;;;;13.20;6.47;;;22.80;96.70;;;;;;5022609;28;20538;-81
2023/09/22 07:55:05;;;;;;;12.77;6.68;;;22.90;96.70;;;;;;5028057;28;20045;-81
2023/09/22 07:57:35;;;;;;;14.02;6.20;;;23.00;96.70;;;;;;5007695;28;20422;-80
2023/09/22 08:00:10;;;;;;;14.52;6.03;;;23.00;96.70;;;;;;5027424;28;20770;-81
2023/09/22 08:02:38;;;;;;;13.63;5.50;;;23.10;96.70;;;;;;5030056;28;20055;-80
2023/09/22 08:05:07;;;;;;;12.43;6.65;;;23.20;96.70;;;;;;5025006;28;20049;-79
2023/09/22 08:07:35;;;;;;;14.65;6.55;;;23.20;96.70;;;;;;5045592;28;20079;-78
2023/09/22 08:10:05;;;;;;;10.10;5.53;;;23.30;96.70;;;;;;5024296;28;20045;-80
2023/09/22 08:12:34;;;;;;;10.90;6.10;;;23.30;96.70;;;;;;5027607;28;20482;-80
2023/09/22 08:15:04;;;;;;;13.65;6.13;;;23.30;96.70;;;;;;5023746;28;20065;-81
2023/09/22 08:17:33;;;;;;;11.00;6.57;;;23.30;96.70;;;;;;5025455;28;20045;-80
2023/09/22 08:20:01;;;;;;;13.88;6.63;;;23.30;96.70;;;;;;5025969;28;20041;-80
2023/09/22 08:22:30;;;;;;;15.07;6.40;;;23.30;96.70;;;;;;5024313;28;20053;-80
2023/09/22 08:24:58;;;;;;;11.35;6.38;;;23.40;96.70;;;;;;5023703;28;20041;-80
2023/09/22 08:27:29;;;;;;;13.35;5.70;;;23.50;96.70;;;;;;5025173;28;20057;-81
2023/09/22 08:29:58;;;;;;;11.18;5.45;;;23.60;96.70;;;;;;5024479;28;20161;-80
2023/09/22 08:33:09;;;;;;;11.40;5.95;;;23.70;96.70;;;;;;5016923;28;20383;-81
2023/09/22 08:35:39;;;;;;;8.70;5.18;;;23.80;96.70;;;;;;5023558;28;20137;-81
2023/09/22 08:38:27;;;;;;;12.45;5.60;;;23.90;96.70;;;;;;5027670;28;20041;-80
2023/09/22 08:40:55;;;;;;;12.25;5.85;;;24.00;96.70;;;;;;5024905;28;20046;-80
2023/09/22 08:43:23;;;;;;;13.25;5.78;;;24.10;96.70;;;;;;5026175;28;20110;-81
2023/09/22 08:45:51;;;;;;;10.35;5.70;;;24.20;96.70;;;;;;5032965;28;20519;-80
2023/09/22 08:48:23;;;;;;;14.07;6.00;;;24.30;96.70;;;;;;5026786;28;20127;-82
2023/09/22 08:50:53;;;;;;;12.13;6.03;;;24.40;96.70;;;;;;5026865;28;20735;-85
2023/09/22 08:53:21;;;;;;;11.52;6.20;;;24.50;96.70;;;;;;5025643;28;20534;-84
2023/09/22 08:55:52;;;;;;;14.10;6.07;;;24.60;96.70;;;;;;5025286;28;20329;-83
2023/09/22 08:58:20;;;;;;;12.25;5.30;;;24.80;96.70;;;;;;5027156;28;20057;-81
2023/09/22 09:00:51;;;;;;;15.50;5.47;;;25.00;96.70;;;;;;5025494;28;20058;-83
2023/09/22 09:03:21;;;;;;;10.18;4.97;;;25.00;96.70;;;;;;5026533;28;20099;-82
2023/09/22 09:05:49;;;;;;;11.55;5.85;;;25.20;96.70;;;;;;5005383;28;20042;-84
2023/09/22 09:08:21;;;;;;;11.00;5.32;;;25.20;96.70;;;;;;5029876;28;20490;-81
2023/09/22 09:10:49;;;;;;;11.00;4.70;;;25.30;96.70;;;;;;5030712;28;20557;-84
2023/09/22 09:13:19;;;;;;;9.88;4.43;;;25.40;96.70;;;;;;5028800;28;20116;-82
2023/09/22 09:15:49;;;;;;;12.18;4.45;;;25.40;96.70;;;;;;5029475;28;20124;-80
2023/09/22 09:18:18;;;;;;;14.52;4.53;;;25.40;96.70;;;;;;5028559;28;20095;-82
2023/09/22 09:21:04;;;;;;;8.43;3.63;;;25.40;96.70;;;;;;5029499;28;20052;-83
2023/09/22 09:23:32;;;;;;;8.23;3.60;;;25.50;96.70;;;;;;5030147;28;20494;-83
2023/09/22 09:26:01;;;;;;;10.88;3.47;;;25.50;96.70;;;;;;5030055;28;20042;-83
2023/09/22 09:28:30;;;;;;;9.25;3.30;;;25.50;96.70;;;;;;5030589;28;20041;-82
2023/09/22 09:30:59;;;;;;;9.15;2.10;;;25.50;96.70;;;;;;5029491;28;20124;-83
2023/09/22 09:33:30;;;;;;;6.75;2.20;;;25.50;96.70;;;;;;5030517;28;20076;-83
2023/09/22 09:35:59;;;;;;;7.68;1.92;;;25.50;96.70;;;;;;5029833;28;20081;-86
2023/09/22 09:38:28;;;;;;;9.02;2.53;;;25.60;96.70;;;;;;5030565;28;20474;-85
2023/09/22 09:40:58;;;;;;;4.97;2.20;;;25.70;96.70;;;;;;5029008;28;20103;-85
2023/09/22 09:43:27;;;;;;;6.60;2.22;;;25.70;96.70;;;;;;5029418;28;20050;-86
2023/09/22 09:45:57;;;;;;;7.90;2.55;;;25.70;96.70;;;;;;5030234;28;20399;-84
2023/09/22 09:48:26;;;;;;;6.88;1.88;;;25.70;96.70;;;;;;5028572;28;20083;-84
2023/09/22 09:50:59;;;;;;;9.40;2.70;;;25.80;96.70;;;;;;5029025;28;20041;-86
2023/09/22 09:53:44;;;;;;;8.88;2.90;;;25.80;96.70;;;;;;5028606;28;20068;-85
2023/09/22 09:56:14;;;;;;;9.90;2.40;;;25.90;96.70;;;;;;5030761;28;20375;-86
2023/09/22 09:58:42;;;;;;;9.18;2.83;;;25.90;96.70;;;;;;5029737;28;20053;-85
2023/09/22 10:01:10;;;;;;;18.15;2.50;;;26.00;96.70;;;;;;5030353;28;20072;-83
2023/09/22 10:03:42;;;;;;;8.60;2.40;;;25.90;96.70;;;;;;5028344;28;20111;-83
2023/09/22 10:06:13;;;;;;;9.32;2.60;;;25.90;96.70;;;;;;5029137;28;20111;-85
2023/09/22 10:08:43;;;;;;;7.35;2.70;;;25.90;96.70;;;;;;5029864;28;20065;-84
2023/09/22 10:11:13;;;;;;;8.60;2.75;;;25.90;96.70;;;;;;5021496;28;20045;-84
2023/09/22 10:13:41;;;;;;;10.02;2.83;;;25.90;96.70;;;;;;5029919;28;20045;-85
2023/09/22 10:16:09;;;;;;;7.20;2.78;;;26.00;96.70;;;;;;5028408;28;20132;-83
2023/09/22 10:18:46;;;;;;;8.02;2.70;;;25.90;96.70;;;;;;5028318;28;20041;-83
2023/09/22 10:21:49;;;;;;;9.05;2.45;;;25.90;96.70;;;;;;5008991;28;20050;-84
2023/09/22 10:24:22;;;;;;;9.45;2.78;;;25.80;96.70;;;;;;5025563;28;20045;-84
2023/09/22 10:27:13;;;;;;;9.20;2.63;;;25.80;96.70;;;;;;5012493;28;20049;-84
2023/09/22 10:29:45;;;;;;;10.90;3.22;;;25.70;96.70;;;;;;5023691;28;20460;-84
2023/09/22 10:32:34;;;;;;;12.13;2.67;;;25.70;96.70;;;;;;5028361;28;20104;-85
2023/09/22 10:35:09;;;;;;;12.00;3.20;;;25.70;96.70;;;;;;5021259;28;20107;-84
2023/09/22 10:37:55;;;;;;;10.10;3.10;;;25.70;96.70;;;;;;5028056;28;20100;-85
2023/09/22 10:40:25;;;;;;;11.77;3.65;;;25.80;96.70;;;;;;5012165;28;20136;-85
2023/09/22 10:42:54;;;;;;;9.90;3.22;;;25.90;96.70;;;;;;5027978;28;20698;-82
2023/09/22 10:45:28;;;;;;;11.20;3.17;;;25.90;96.70;;;;;;5028027;28;20592;-83
2023/09/22 10:47:58;;;;;;;10.20;3.45;;;26.00;96.70;;;;;;5008020;28;20056;-84
2023/09/22 10:50:31;;;;;;;10.05;2.95;;;26.00;96.70;;;;;;5026554;28;20120;-82
2023/09/22 10:53:02;;;;;;;12.55;3.25;;;26.00;96.70;;;;;;5027643;28;20506;-84
2023/09/22 10:55:37;;;;;;;12.02;3.30;;;25.90;96.70;;;;;;5028287;28;20227;-85
2023/09/22 10:58:06;;;;;;;9.65;3.13;;;25.90;96.70;;;;;;5008368;28;20116;-85
2023/09/22 11:00:37;;;;;;;8.48;3.35;;;25.80;96.70;;;;;;5025517;28;20498;-84
2023/09/22 11:03:08;;;;;;;7.72;2.58;;;25.80;96.70;;;;;;5027710;28;20045;-85
2023/09/22 11:05:37;;;;;;;9.60;3.22;;;25.70;96.70;;;;;;5028884;28;20044;-83
2023/09/22 11:08:13;;;;;;;8.30;2.60;;;25.60;96.70;;;;;;5027715;28;20045;-84
2023/09/22 11:10:46;;;;;;;8.43;2.53;;;25.50;96.70;;;;;;5029181;28;20431;-83
2023/09/22 11:13:32;;;;;;;11.35;2.85;;;25.40;96.70;;;;;;5008430;28;20049;-85
2023/09/22 11:16:02;;;;;;;9.23;3.22;;;25.30;96.70;;;;;;5053553;28;20049;-84
2023/09/22 11:18:35;;;;;;;7.13;2.78;;;25.30;96.70;;;;;;5011273;28;20085;-84
2023/09/22 11:21:08;;;;;;;9.88;3.03;;;25.30;96.70;;;;;;5027191;28;20046;-84
2023/09/22 11:23:41;;;;;;;10.85;2.80;;;25.30;96.70;;;;;;5026609;28;20117;-85
2023/09/22 11:26:12;;;;;;;8.45;2.65;;;25.30;96.70;;;;;;5027490;28;20067;-84
2023/09/22 11:28:43;;;;;;;7.43;2.85;;;25.20;96.70;;;;;;5027178;28;20056;-84
2023/09/22 11:31:14;;;;;;;9.30;2.97;;;25.10;96.70;;;;;;5028254;28;20727;-86
2023/09/22 11:33:44;;;;;;;4.70;1.67;;;25.00;96.70;;;;;;5027535;28;20049;-86
2023/09/22 11:36:13;;;;;;;7.88;1.83;;;24.80;96.70;;;;;;5028749;28;20052;-85
2023/09/22 11:38:43;;;;;;;7.25;2.38;;;24.70;96.70;;;;;;5027177;28;20236;-84
2023/09/22 11:41:15;;;;;;;6.70;1.95;;;24.60;96.70;;;;;;5027381;28;20049;-87
2023/09/22 11:43:45;;;;;;;7.43;2.47;;;24.60;96.70;;;;;;5026943;28;20049;-85
2023/09/22 11:46:15;;;;;;;8.77;2.60;;;24.60;96.70;;;;;;5010780;28;20049;-84
2023/09/22 11:48:56;;;;;;;6.75;2.25;;;24.60;96.70;;;;;;5018671;28;20128;-84
2023/09/22 11:51:45;;;;;;;7.05;2.20;;;24.50;96.70;;;;;;5027049;28;20091;-85
2023/09/22 11:54:14;;;;;;;13.07;3.38;;;24.50;96.70;;;;;;5026619;28;20034;-84
2023/09/22 11:56:47;;;;;;;11.07;3.45;;;24.30;96.70;;;;;;5028739;28;20045;-84
2023/09/22 11:59:20;;;;;;;14.90;4.38;;;24.10;96.70;;;;;;5025967;28;20057;-85
2023/09/22 12:01:49;;;;;;;11.55;3.72;;;23.90;96.70;;;;;;5026314;28;20049;-84
2023/09/22 12:04:22;;;;;;;12.80;3.58;;;23.90;96.70;;;;;;5026045;28;20048;-84
2023/09/22 12:06:52;;;;;;;9.00;2.53;;;23.90;96.70;;;;;;5000335;28;20125;-86
2023/09/22 12:09:20;;;;;;;7.53;3.10;;;23.90;96.70;;;;;;5028016;28;20047;-84
2023/09/22 12:11:51;;;;;;;6.95;2.80;;;23.80;96.70;;;;;;5026652;28;20045;-84
2023/09/22 12:14:20;;;;;;;9.45;3.22;;;23.80;96.70;;;;;;5026808;28;20140;-83
2023/09/22 12:16:49;;;;;;;7.72;2.67;;;23.60;96.70;;;;;;5028241;28;20628;-84
2023/09/22 12:19:17;;;;;;;7.35;2.83;;;23.60;96.70;;;;;;5009788;28;20049;-84
2023/09/22 12:21:46;;;;;;;9.02;3.28;;;23.40;96.70;;;;;;5010120;28;20069;-84
2023/09/22 12:24:14;;;;;;;7.35;2.70;;;23.50;96.70;;;;;;5026186;28;20076;-84
2023/09/22 12:26:43;;;;;;;10.20;4.22;;;23.50;96.70;;;;;;5026292;28;20472;-84
2023/09/22 12:29:13;;;;;;;11.73;3.60;;;23.50;96.70;;;;;;5006497;28;20454;-84
2023/09/22 12:31:42;;;;;;;7.82;3.30;;;23.50;96.70;;;;;;5025764;28;20071;-83
2023/09/22 12:34:11;;;;;;;10.98;3.53;;;23.40;96.70;;;;;;5026571;28;20077;-85
2023/09/22 12:36:43;;;;;;;10.75;3.40;;;23.60;96.70;;;;;;5010787;28;20123;-84
2023/09/22 12:39:18;;;;;;;6.95;3.25;;;23.60;96.70;;;;;;5005812;28;20041;-84
2023/09/22 12:41:46;;;;;;;12.02;3.30;;;23.60;96.70;;;;;;4987726;28;20045;-83
2023/09/22 12:44:16;;;;;;;9.45;3.25;;;23.70;96.70;;;;;;4992179;28;20096;-83
2023/09/22 12:46:45;;;;;;;10.07;3.17;;;23.80;96.70;;;;;;5009169;28;20244;-83
2023/09/22 12:49:14;;;;;;;9.32;3.22;;;23.80;96.70;;;;;;5008859;28;20042;-83
2023/09/22 12:51:47;;;;;;;13.25;4.78;;;23.80;96.70;;;;;;4992450;28;20053;-82
2023/09/22 12:54:22;;;;;;;9.80;3.67;;;23.60;96.70;;;;;;4974842;28;20045;-83
2023/09/22 12:56:50;;;;;;;9.55;3.45;;;23.30;96.70;;;;;;5008660;28;20560;-81
2023/09/22 12:59:19;;;;;;;8.25;2.70;;;23.10;96.70;;;;;;5008170;28;20053;-83